Time;durP1;ratioP1;P1;durP2;ratioP2;P2;SDS_P1;SDS_P2;PMS_P1;PMS_P2;Temp;Humidity;BMP_temperature;BMP_pressure;BME280_temperature;BME280_humidity;BME280_pressure;Samples;Min_cycle;Max_cycle;Signal;HPM_P1;HPM_P2
2022/05/23 00:00:28;;;;;;;8.35;2.80;;;;;;;4.79;49.21;98919.94;6189165;23;20028;-79
2022/05/23 00:02:54;;;;;;;4.63;2.10;;;;;;;4.67;49.49;98901.00;6170977;23;20048;-80
2022/05/23 00:05:20;;;;;;;4.30;2.53;;;;;;;4.64;48.98;98898.44;6218417;23;20012;-79
2022/05/23 00:07:48;;;;;;;4.68;2.13;;;;;;;4.72;48.91;98916.50;6221770;23;20066;-80
2022/05/23 00:10:17;;;;;;;6.15;2.60;;;;;;;4.72;49.28;98919.06;6194846;23;20071;-81
2022/05/23 00:12:43;;;;;;;4.47;2.60;;;;;;;4.55;48.77;98900.13;6219631;23;20012;-80
2022/05/23 00:15:11;;;;;;;4.70;2.58;;;;;;;4.65;48.68;98905.31;6216767;23;20043;-80
2022/05/23 00:17:38;;;;;;;6.07;2.95;;;;;;;4.64;49.45;98907.88;6218519;23;20067;-80
2022/05/23 00:20:06;;;;;;;5.80;2.70;;;;;;;4.74;49.41;98922.53;6200135;23;20047;-80
2022/05/23 00:22:32;;;;;;;7.50;2.97;;;;;;;4.58;49.93;98905.28;6200282;23;20020;-80
2022/05/23 00:24:58;;;;;;;5.90;2.90;;;;;;;4.71;49.30;98930.25;6168284;23;20023;-79
2022/05/23 00:27:25;;;;;;;11.95;6.35;;;;;;;4.73;49.29;98927.66;6167872;23;20123;-79
2022/05/23 00:29:52;;;;;;;30.52;15.82;;;;;;;4.68;49.40;98927.66;6190589;23;20023;-79
2022/05/23 00:35:19;;;;;;;8.13;3.78;;;;;;;4.60;49.63;98919.03;6218774;23;20074;-78
2022/05/23 00:37:51;;;;;;;7.18;3.50;;;;;;;4.62;49.70;98923.38;6216351;23;20017;-80
2022/05/23 00:40:31;;;;;;;9.35;4.00;;;;;;;4.51;50.12;98915.63;6191242;23;20103;-79
2022/05/23 00:43:13;;;;;;;9.18;4.13;;;;;;;4.55;49.96;98937.09;6193942;23;20071;-80
2022/05/23 00:45:53;;;;;;;7.28;3.72;;;;;;;4.51;50.23;98936.22;6219989;23;20021;-80
2022/05/23 00:48:22;;;;;;;6.47;3.22;;;;;;;4.42;49.96;98915.59;6223488;23;20477;-82
2022/05/23 00:50:57;;;;;;;7.05;3.00;;;;;;;4.39;49.81;98920.72;6215860;23;20055;-81
2022/05/23 00:53:32;;;;;;;7.20;3.40;;;;;;;4.35;50.28;98924.16;6212679;23;20020;-79
2022/05/23 00:55:59;;;;;;;3.92;3.03;;;;;;;4.41;49.88;98933.63;6162304;23;20465;-80
2022/05/23 00:58:30;;;;;;;5.43;2.80;;;;;;;4.41;50.04;98933.63;6187350;23;20066;-80
2022/05/23 01:01:02;;;;;;;3.63;2.17;;;;;;;4.39;50.12;98933.59;6191551;23;20043;-80
2022/05/23 01:03:29;;;;;;;4.55;2.10;;;;;;;4.26;49.97;98909.53;6163311;23;20016;-79
2022/05/23 01:05:56;;;;;;;6.00;2.30;;;;;;;4.33;50.36;98933.59;6163100;23;20016;-81
2022/05/23 01:08:22;;;;;;;3.45;2.20;;;;;;;4.39;50.34;98943.91;6187946;23;20018;-81
2022/05/23 01:10:48;;;;;;;4.35;1.88;;;;;;;4.40;50.25;98934.50;6186822;23;20408;-79
2022/05/23 01:13:15;;;;;;;4.05;1.92;;;;;;;4.40;50.48;98937.91;6187519;23;20021;-82
2022/05/23 01:15:48;;;;;;;4.53;2.15;;;;;;;4.43;50.51;98939.63;6213979;23;20020;-79
2022/05/23 01:18:14;;;;;;;6.35;2.40;;;;;;;4.37;49.94;98927.59;6187459;23;20027;-79
2022/05/23 01:20:41;;;;;;;4.90;2.28;;;;;;;4.25;50.76;98912.97;6163602;23;20099;-79
2022/05/23 01:23:09;;;;;;;3.70;2.40;;;;;;;4.45;50.59;98946.50;6163559;23;20500;-81
2022/05/23 01:25:59;;;;;;;4.90;2.78;;;;;;;4.38;50.38;98924.16;6188283;23;20017;-80
2022/05/23 01:28:38;;;;;;;6.38;2.70;;;;;;;4.52;49.97;98935.34;6188280;23;20094;-80
2022/05/23 01:31:08;;;;;;;5.10;2.60;;;;;;;4.41;50.47;98906.13;6192178;23;20016;-81
2022/05/23 01:33:35;;;;;;;7.25;3.00;;;;;;;4.55;50.71;98929.34;6196097;23;20059;-80
2022/05/23 01:36:04;;;;;;;9.40;5.30;;;;;;;4.50;50.16;98915.59;6182355;23;20036;-80
2022/05/23 01:38:31;;;;;;;4.45;2.38;;;;;;;4.49;50.23;98932.78;6211249;23;20016;-80
2022/05/23 01:41:01;;;;;;;8.18;3.00;;;;;;;4.52;50.46;98944.81;6173779;23;20020;-79
2022/05/23 01:43:28;;;;;;;7.55;3.05;;;;;;;4.37;50.55;98930.16;6159099;23;20021;-79
2022/05/23 01:46:14;;;;;;;3.78;2.38;;;;;;;4.47;51.08;98931.91;6200046;23;20631;-82
2022/05/23 01:49:03;;;;;;;5.10;2.10;;;;;;;4.60;51.13;98949.97;6159206;23;20013;-80
2022/05/23 01:51:29;;;;;;;6.55;2.58;;;;;;;4.55;51.26;98928.47;6184582;23;20017;-78
2022/05/23 01:53:55;;;;;;;3.42;2.40;;;;;;;4.55;51.14;98933.63;6186573;23;20076;-81
2022/05/23 01:56:21;;;;;;;6.30;2.30;;;;;;;4.32;50.92;98911.25;6212136;23;20075;-80
2022/05/23 02:01:34;;;;;;;5.18;2.50;;;;;;;4.69;51.32;98950.00;6181713;23;20032;-80
2022/05/23 02:04:00;;;;;;;5.30;2.72;;;;;;;4.76;51.44;98956.84;6185392;23;20442;-81
2022/05/23 02:06:38;;;;;;;4.05;2.30;;;;;;;4.76;51.39;98943.13;6190619;23;20013;-79
2022/05/23 02:09:12;;;;;;;6.55;2.20;;;;;;;4.80;50.97;98942.28;6179125;23;20020;-84
2022/05/23 02:11:47;;;;;;;5.68;2.17;;;;;;;4.56;51.24;98881.25;6189832;23;20017;-80
2022/05/23 02:14:21;;;;;;;5.05;2.67;;;;;;;5.04;50.88;98945.72;6160086;23;20024;-78
2022/05/23 02:16:47;;;;;;;9.48;2.15;;;;;;;5.13;50.76;98956.91;6183285;23;20025;-76
2022/05/23 02:19:13;;;;;;;3.45;2.25;;;;;;;5.20;50.54;98938.81;6183449;23;20055;-77
2022/05/23 02:21:43;;;;;;;4.50;1.98;;;;;;;5.29;50.76;98943.97;6182419;23;20020;-77
2022/05/23 02:24:09;;;;;;;4.82;2.22;;;;;;;5.29;50.80;98931.09;6157659;23;20020;-79
2022/05/23 02:26:36;;;;;;;5.65;2.10;;;;;;;5.43;50.56;98933.66;6183696;23;20525;-77
2022/05/23 02:29:19;;;;;;;4.07;1.92;;;;;;;5.60;50.11;98953.38;6186614;23;20017;-79
2022/05/23 02:31:48;;;;;;;4.15;2.33;;;;;;;5.65;50.25;98944.75;6158833;23;20402;-78
2022/05/23 02:34:16;;;;;;;4.05;1.95;;;;;;;5.71;50.09;98937.00;6183647;23;20025;-79
2022/05/23 02:36:47;;;;;;;3.00;2.00;;;;;;;5.77;49.90;98945.59;6158158;23;20104;-77
2022/05/23 02:39:16;;;;;;;10.32;2.00;;;;;;;5.87;49.98;98949.88;6183262;23;20137;-76
2022/05/23 02:41:48;;;;;;;3.67;2.10;;;;;;;5.95;49.20;98942.97;6188928;23;20024;-78
2022/05/23 02:44:18;;;;;;;7.18;2.17;;;;;;;6.01;49.45;98932.66;6171448;23;20435;-75
2022/05/23 02:46:44;;;;;;;4.07;1.90;;;;;;;6.12;49.41;98944.63;6169813;23;20040;-79
2022/05/23 02:49:14;;;;;;;4.82;2.10;;;;;;;6.08;49.15;98923.13;6148808;23;20096;-79
2022/05/23 02:51:44;;;;;;;3.10;2.08;;;;;;;6.36;48.75;98954.00;6178294;23;20016;-79
2022/05/23 02:54:12;;;;;;;3.17;1.98;;;;;;;6.28;48.26;98923.06;6212110;23;20021;-81
2022/05/23 02:56:40;;;;;;;4.65;2.20;;;;;;;6.37;48.06;98922.13;6211463;23;20033;-80
2022/05/23 02:59:13;;;;;;;4.40;1.85;;;;;;;6.50;48.19;98940.16;6202814;23;20075;-80
2022/05/23 03:04:39;;;;;;;4.10;2.40;;;;;;;6.80;47.09;98952.00;6160466;23;20307;-81
2022/05/23 03:07:05;;;;;;;6.97;2.10;;;;;;;6.95;47.73;98955.38;6162073;23;20013;-81
2022/05/23 03:09:33;;;;;;;4.75;2.35;;;;;;;6.94;46.87;98926.03;6137215;23;20023;-85
2022/05/23 03:12:01;;;;;;;5.60;2.00;;;;;;;7.22;46.85;98947.34;6135668;23;20475;-81
2022/05/23 03:14:33;;;;;;;4.07;1.77;;;;;;;7.30;46.47;98954.22;6160639;23;20013;-80
2022/05/23 03:17:05;;;;;;;37.78;19.90;;;;;;;7.35;46.12;98930.00;6186444;23;20064;-80
2022/05/23 03:19:39;;;;;;;3.88;2.15;;;;;;;7.64;45.97;98946.09;6161480;23;20449;-79
2022/05/23 03:28:07;;;;;;;7.40;2.50;;;;;;;7.65;44.67;98891.72;6159840;23;20477;-78
2022/05/23 03:30:34;;;;;;;4.05;2.53;;;;;;;8.00;44.63;98946.56;6158946;23;20016;-79
2022/05/23 03:33:01;;;;;;;4.55;2.22;;;;;;;8.13;44.36;98937.75;6183487;23;20145;-81
2022/05/23 03:35:29;;;;;;;5.18;2.17;;;;;;;8.17;43.95;98933.38;6134585;23;20028;-81
2022/05/23 03:37:57;;;;;;;10.07;2.38;;;;;;;8.35;43.70;98937.47;6135428;23;20017;-83
2022/05/23 03:44:20;;;;;;;4.38;2.25;;;;;;;8.76;42.55;98943.00;6171852;23;20064;-79
2022/05/23 03:46:55;;;;;;;7.35;2.65;;;;;;;8.78;42.42;98933.47;6183623;23;20087;-81
2022/05/23 03:49:23;;;;;;;5.38;2.80;;;;;;;8.71;42.16;98891.19;6162357;23;20016;-81
2022/05/23 03:51:49;;;;;;;4.03;2.58;;;;;;;8.81;41.88;98898.81;6188794;23;20024;-78
2022/05/23 03:54:15;;;;;;;6.00;2.97;;;;;;;9.09;41.48;98929.50;6188651;23;20132;-81
2022/05/23 03:56:45;;;;;;;5.97;3.10;;;;;;;9.30;41.50;98933.47;6186022;23;20048;-79
2022/05/23 03:59:12;;;;;;;6.38;2.67;;;;;;;9.40;41.54;98928.97;6183271;23;20045;-80
2022/05/23 04:01:56;;;;;;;3.55;2.80;;;;;;;9.58;40.65;98933.84;6208249;23;20091;-80
2022/05/23 04:04:33;;;;;;;3.50;2.65;;;;;;;9.65;40.65;98921.59;6159929;23;20450;-80
2022/05/23 04:07:18;;;;;;;3.90;2.35;;;;;;;9.86;39.99;98924.66;6183850;23;20019;-79
2022/05/23 04:10:02;;;;;;;4.05;2.60;;;;;;;10.04;39.69;98926.03;6138080;23;20339;-79
2022/05/23 04:12:32;;;;;;;3.38;2.28;;;;;;;10.13;39.53;98914.59;6157847;23;20024;-79
2022/05/23 04:15:03;;;;;;;5.13;2.70;;;;;;;10.40;39.23;98923.56;6133084;23;20087;-79
2022/05/23 04:17:30;;;;;;;4.05;2.08;;;;;;;10.38;38.86;98927.91;6182651;23;20043;-80
2022/05/23 04:19:57;;;;;;;4.47;1.95;;;;;;;10.40;38.76;98924.41;6182154;23;20092;-79
2022/05/23 04:22:26;;;;;;;3.45;1.73;;;;;;;10.60;38.79;98919.66;6183475;23;20025;-80
2022/05/23 04:25:06;;;;;;;2.88;1.77;;;;;;;10.58;38.45;98898.00;6157462;23;20505;-79
2022/05/23 04:27:33;;;;;;;3.05;2.10;;;;;;;10.75;37.71;98898.47;6182435;23;20017;-80
2022/05/23 04:29:59;;;;;;;2.70;2.10;;;;;;;10.90;37.53;98907.66;6157038;23;20023;-80
2022/05/23 04:35:36;;;;;;;4.55;1.98;;;;;;;10.45;37.45;98890.50;6182847;23;20017;-79
2022/05/23 04:38:02;;;;;;;4.57;2.13;;;;;;;10.73;37.58;98915.03;6158296;23;20109;-77
2022/05/23 04:40:34;;;;;;;2.13;1.80;;;;;;;10.90;37.30;98910.25;6188662;23;20020;-80
2022/05/23 04:43:03;;;;;;;4.00;2.03;;;;;;;10.99;37.06;98903.97;6183783;23;20299;-79
2022/05/23 04:45:29;;;;;;;3.67;1.70;;;;;;;11.39;36.83;98908.16;6213898;23;20020;-78
2022/05/23 04:50:54;;;;;;;5.95;2.03;;;;;;;12.04;35.73;98919.44;6162443;23;20027;-79
2022/05/23 04:53:24;;;;;;;3.35;1.98;;;;;;;12.11;35.38;98901.00;6138082;23;20103;-81
2022/05/23 04:56:13;;;;;;;5.05;2.17;;;;;;;12.38;34.77;98911.50;6201654;23;20013;-80
2022/05/23 04:58:39;;;;;;;5.50;2.08;;;;;;;12.43;34.76;98902.63;6188868;23;20023;-78
2022/05/23 05:01:11;;;;;;;3.75;2.30;;;;;;;12.49;34.53;98912.91;6213447;23;20028;-78
2022/05/23 05:03:41;;;;;;;3.75;2.28;;;;;;;12.46;34.38;98901.72;6173759;23;20024;-79
2022/05/23 05:06:07;;;;;;;3.63;2.40;;;;;;;12.49;34.62;98885.94;6200986;23;20016;-79
2022/05/23 05:08:33;;;;;;;2.72;2.28;;;;;;;12.52;34.35;98892.81;6171301;23;20443;-80
2022/05/23 05:10:59;;;;;;;3.97;2.60;;;;;;;12.41;34.38;98904.44;6194087;23;20020;-80
2022/05/23 05:13:28;;;;;;;4.35;2.47;;;;;;;12.53;34.00;98900.59;6217211;23;20043;-79
2022/05/23 05:16:02;;;;;;;4.35;2.33;;;;;;;12.42;33.77;98906.16;6193401;23;20040;-81
2022/05/23 05:19:57;;;;;;;;;;;;;;;;;;;;;
2022/05/23 05:22:52;;;;;;;6.20;3.30;;;;;;;11.81;33.67;98794.94;6096237;23;20018;-79
2022/05/23 05:26:11;;;;;;;5.82;3.30;;;;;;;13.08;33.25;98857.94;6126110;23;20016;-79
2022/05/23 05:28:40;;;;;;;6.25;2.85;;;;;;;13.90;32.84;98883.84;6196380;23;20476;-81
2022/05/23 05:31:25;;;;;;;3.78;2.70;;;;;;;13.88;31.92;98845.56;6189291;23;20016;-81
2022/05/23 05:34:35;;;;;;;6.65;2.80;;;;;;;14.03;32.10;98892.03;6218864;23;20373;-81
2022/05/23 05:37:12;;;;;;;6.55;2.83;;;;;;;13.91;31.84;98850.69;6187816;23;20023;-80
2022/05/23 05:40:10;;;;;;;5.15;3.13;;;;;;;14.53;31.56;98838.66;6161757;23;20458;-80
2022/05/23 05:42:58;;;;;;;6.67;2.70;;;;;;;16.36;30.15;98820.19;6190181;23;20020;-82
2022/05/23 05:45:33;;;;;;;5.72;2.88;;;;;;;18.78;28.36;98756.56;6188314;23;20067;-79
2022/05/23 05:52:33;;;;;;;4.53;2.92;;;;;;;24.24;23.46;98754.72;6192349;23;20055;-80
2022/05/23 05:55:39;;;;;;;5.03;2.85;;;;;;;26.41;21.34;98846.22;6163705;23;20020;-80
2022/05/23 05:58:16;;;;;;;5.75;2.60;;;;;;;27.31;20.32;98838.03;6188817;23;20020;-80
2022/05/23 06:01:25;;;;;;;6.75;2.90;;;;;;;28.65;18.61;98793.16;6189386;23;20020;-80
2022/05/23 06:03:51;;;;;;;4.70;3.05;;;;;;;29.01;17.73;98835.97;6169883;23;20058;-80
2022/05/23 06:13:25;;;;;;;5.53;2.97;;;;;;;31.38;15.52;98786.75;6193961;23;20043;-80
2022/05/23 06:16:44;;;;;;;7.85;2.78;;;;;;;31.54;15.27;98820.81;6167939;23;20024;-79
2022/05/23 06:20:05;;;;;;;6.90;3.10;;;;;;;32.75;13.59;98815.13;6215549;23;20457;-81
2022/05/23 06:22:57;;;;;;;3.25;2.95;;;;;;;32.17;14.02;98784.22;6165955;23;20162;-81
2022/05/23 06:25:27;;;;;;;6.50;3.40;;;;;;;32.96;13.03;98805.56;6165029;23;20020;-83
2022/05/23 06:28:36;;;;;;;5.38;2.90;;;;;;;33.62;12.05;98717.72;6162068;23;20012;-80
2022/05/23 06:34:36;;;;;;;3.75;2.92;;;;;;;35.75;11.36;98794.50;6091336;23;20057;-80
2022/05/23 06:37:22;;;;;;;;;;;;;;;;;;;;;
2022/05/23 06:40:20;;;;;;;3.88;3.13;;;;;;;34.60;11.10;98738.03;6166044;23;20083;-80
2022/05/23 06:43:08;;;;;;;3.67;2.10;;;;;;;35.56;10.93;98742.81;6167115;23;20542;-80
2022/05/23 06:46:06;;;;;;;3.85;2.10;;;;;;;35.62;10.47;98787.16;6218660;23;20020;-80
2022/05/23 06:53:02;;;;;;;5.72;2.30;;;;;;;32.65;11.66;98747.22;6045743;23;20022;-79
2022/05/23 06:56:06;;;;;;;6.75;2.38;;;;;;;33.81;10.90;98770.25;6216963;23;20090;-80
2022/05/23 06:58:41;;;;;;;5.78;2.28;;;;;;;34.45;10.78;98730.03;6215017;23;20020;-80
2022/05/23 07:01:25;;;;;;;3.70;2.13;;;;;;;35.59;9.96;98769.47;6192512;23;20020;-79
2022/05/23 07:04:10;;;;;;;4.78;2.25;;;;;;;35.52;10.15;98776.72;6192982;23;20013;-79
2022/05/23 07:13:09;;;;;;;5.43;2.25;;;;;;;36.45;9.86;98750.13;6195415;23;20020;-79
2022/05/23 07:15:46;;;;;;;4.60;2.50;;;;;;;37.36;9.09;98712.50;6172716;23;20078;-80
2022/05/23 07:18:30;;;;;;;8.18;5.55;;;;;;;37.53;8.84;98754.38;6195187;23;20013;-81
2022/05/23 07:20:58;;;;;;;10.35;7.22;;;;;;;36.43;9.02;98760.31;6176293;23;20462;-81
2022/05/23 07:23:55;;;;;;;6.20;4.43;;;;;;;34.33;9.62;98713.47;6171688;23;20028;-81
2022/05/23 07:26:39;;;;;;;12.88;8.85;;;;;;;35.50;9.88;98759.88;6145281;23;20024;-82
2022/05/23 07:30:36;;;;;;;9.38;6.78;;;;;;;37.80;8.74;98731.69;6187201;23;20016;-81
2022/05/23 07:33:06;;;;;;;7.63;6.63;;;;;;;39.06;8.21;98648.56;6171239;23;20366;-83
2022/05/23 07:35:58;;;;;;;;;;;;;;;40.75;7.43;98743.13;6195771;23;20013;-81
2022/05/23 07:38:28;;;;;;;6.05;3.58;;;;;;;40.05;7.90;98732.66;6163285;23;20239;-82
2022/05/23 07:40:59;;;;;;;4.75;2.40;;;;;;;40.19;7.46;98751.50;6188875;23;20020;-82
2022/05/23 07:44:10;;;;;;;;;;;;;;;;;;;;;
2022/05/23 07:47:13;;;;;;;10.93;4.03;;;;;;;39.99;7.49;98695.47;6179106;23;20024;-82
2022/05/23 08:02:23;;;;;;;9.25;7.55;;;;;;;41.35;6.20;98692.91;6087036;23;20022;-85
2022/05/23 08:05:28;;;;;;;9.38;4.68;;;;;;;41.99;6.28;98718.41;6156338;23;20371;-85
2022/05/23 08:08:03;;;;;;;5.35;2.60;;;;;;;42.06;5.94;98696.38;6186083;23;20625;-83
2022/05/23 08:11:00;;;;;;;8.15;3.70;;;;;;;42.03;6.24;98628.63;6198691;23;20028;-86
2022/05/23 08:13:57;;;;;;;12.85;7.53;;;;;;;42.82;5.71;98711.53;6197647;23;20516;-84
2022/05/23 08:18:18;;;;;;;;;;;;;;;;;;;;;
2022/05/23 08:25:37;;;;;;;8.20;4.20;;;;;;;43.44;5.92;98704.13;6017246;23;20423;-83
2022/05/23 08:28:15;;;;;;;3.60;2.38;;;;;;;43.70;5.38;98680.63;6048728;23;20105;-85
2022/05/23 08:30:42;;;;;;;7.32;3.22;;;;;;;43.65;5.41;98675.09;6076093;23;20032;-84
2022/05/23 08:33:22;;;;;;;6.88;5.88;;;;;;;43.37;5.42;98695.28;6193796;23;20073;-84
2022/05/23 08:36:13;;;;;;;10.30;7.18;;;;;;;42.94;5.46;98679.44;6194156;23;20068;-86
2022/05/23 08:38:51;;;;;;;14.52;11.88;;;;;;;42.38;5.68;98658.41;6190994;23;20040;-85
2022/05/23 08:41:33;;;;;;;16.10;13.30;;;;;;;42.33;5.64;98661.06;6197445;23;20031;-86
2022/05/23 08:44:16;;;;;;;6.68;4.57;;;;;;;42.13;5.17;98665.13;6171717;23;20012;-84
2022/05/23 08:47:21;;;;;;;2.92;2.63;;;;;;;41.29;5.57;98595.66;6176452;23;20088;-86
2022/05/23 08:49:59;;;;;;;2.97;2.47;;;;;;;42.04;5.32;98677.53;6202240;23;20016;-86
2022/05/23 08:53:22;;;;;;;4.35;2.55;;;;;;;42.37;5.46;98643.13;6176621;23;20039;-88
2022/05/23 08:56:37;;;;;;;6.00;4.45;;;;;;;42.92;5.46;98676.13;6190493;23;20012;-84
2022/05/23 09:02:38;;;;;;;6.90;3.03;;;;;;;41.50;5.84;98624.13;6150372;23;20025;-82
2022/05/23 09:05:19;;;;;;;6.10;2.58;;;;;;;40.87;5.99;98662.16;6181715;23;20063;-84
2022/05/23 09:07:54;;;;;;;3.25;2.35;;;;;;;41.31;5.65;98675.34;6160190;23;20024;-85
2022/05/23 09:10:41;;;;;;;3.10;2.15;;;;;;;42.25;5.38;98675.97;6185277;23;20024;-84
2022/05/23 09:13:09;;;;;;;6.07;4.20;;;;;;;42.67;5.24;98657.47;6137690;23;20024;-84
2022/05/23 09:15:36;;;;;;;7.05;4.00;;;;;;;42.74;5.23;98677.22;6179509;23;20021;-82
2022/05/23 09:18:06;;;;;;;2.53;2.28;;;;;;;42.02;5.08;98679.69;6151144;23;20524;-85
2022/05/23 09:20:34;;;;;;;7.32;2.88;;;;;;;41.95;5.40;98640.78;6171377;23;20052;-84
2022/05/23 09:23:06;;;;;;;5.18;3.47;;;;;;;42.39;5.47;98671.00;6197574;23;20019;-87
2022/05/23 09:25:33;;;;;;;5.13;2.10;;;;;;;42.57;5.20;98661.69;6142619;23;20103;-86
2022/05/23 09:28:34;;;;;;;4.68;2.30;;;;;;;41.54;5.33;98668.19;6141193;23;20013;-83
2022/05/23 09:31:10;;;;;;;6.32;4.25;;;;;;;40.21;5.95;98674.00;6146062;23;20048;-83
2022/05/23 09:33:46;;;;;;;3.90;3.15;;;;;;;39.87;5.99;98634.75;6202615;23;20026;-85
2022/05/23 09:36:22;;;;;;;5.03;2.83;;;;;;;39.80;6.07;98577.72;6160419;23;20009;-82
2022/05/23 09:39:02;;;;;;;3.53;2.05;;;;;;;40.01;5.79;98628.00;6171213;23;20011;-79
2022/05/23 09:47:54;;;;;;;5.57;2.53;;;;;;;40.03;5.88;98614.19;6144022;23;20077;-82
2022/05/23 09:50:35;;;;;;;3.70;3.33;;;;;;;38.56;6.57;98572.41;6143200;23;20024;-83
2022/05/23 09:53:01;;;;;;;6.07;2.00;;;;;;;39.04;6.46;98645.25;6139562;23;20021;-83
2022/05/23 09:55:31;;;;;;;9.90;5.63;;;;;;;38.95;6.53;98642.84;6163709;23;20036;-84
2022/05/23 09:58:06;;;;;;;4.80;3.92;;;;;;;38.45;6.63;98624.75;6166909;23;20057;-85
2022/05/23 10:00:39;;;;;;;4.88;2.90;;;;;;;38.53;6.85;98657.06;6109817;23;20065;-82
2022/05/23 10:03:19;;;;;;;6.25;2.10;;;;;;;37.67;6.85;98652.06;6143352;23;20013;-83
2022/05/23 10:06:01;;;;;;;6.38;4.65;;;;;;;36.71;7.42;98585.97;6166117;23;20037;-83
2022/05/23 10:08:35;;;;;;;5.03;3.30;;;;;;;37.30;7.07;98594.88;6159127;23;20024;-84
2022/05/23 10:11:24;;;;;;;6.45;5.68;;;;;;;38.23;6.71;98605.31;6138301;23;20070;-80
2022/05/23 10:14:16;;;;;;;8.93;3.05;;;;;;;38.41;6.38;98586.38;6135816;23;20025;-85
2022/05/23 10:16:48;;;;;;;8.30;6.30;;;;;;;36.86;6.60;98581.09;6140758;23;20017;-83
2022/05/23 10:19:34;;;;;;;6.55;4.03;;;;;;;35.98;7.69;98648.06;6165770;23;20017;-80
2022/05/23 10:22:13;;;;;;;3.80;2.72;;;;;;;36.08;7.80;98623.31;6138595;23;20044;-84
2022/05/23 10:24:51;;;;;;;6.10;3.58;;;;;;;34.96;7.77;98608.25;6137024;23;20013;-85
2022/05/23 10:27:42;;;;;;;7.47;4.63;;;;;;;32.60;8.15;98612.34;6111358;23;20108;-83
2022/05/23 10:30:10;;;;;;;6.82;1.95;;;;;;;30.85;9.68;98638.69;6149090;23;20048;-81
2022/05/23 10:32:49;;;;;;;5.88;2.63;;;;;;;29.06;10.35;98603.38;6113521;23;20116;-83
2022/05/23 10:35:36;;;;;;;21.42;15.40;;;;;;;28.32;11.17;98635.91;6141661;23;20046;-84
2022/05/23 10:45:01;;;;;;;5.07;3.20;;;;;;;25.53;12.68;98655.03;6072452;23;20140;-82
2022/05/23 10:48:08;;;;;;;32.78;20.80;;;;;;;24.96;13.67;98655.56;6073440;23;20021;-85
2022/05/23 10:50:43;;;;;;;6.80;2.50;;;;;;;24.30;13.89;98629.28;6155862;23;20419;-87
2022/05/23 10:53:32;;;;;;;6.22;2.92;;;;;;;23.96;14.78;98648.84;6165197;23;20021;-83
2022/05/23 10:56:30;;;;;;;8.27;4.57;;;;;;;23.60;14.85;98635.00;6118151;23;20017;-84
2022/05/23 10:59:08;;;;;;;6.75;4.65;;;;;;;23.05;14.96;98616.38;6141956;23;20434;-84
2022/05/23 11:01:53;;;;;;;16.52;11.43;;;;;;;22.59;15.38;98611.06;6166733;23;20082;-84
2022/05/23 11:05:16;;;;;;;3.65;2.40;;;;;;;22.36;15.82;98626.06;6189818;23;20460;-82
2022/05/23 11:07:50;;;;;;;6.93;1.60;;;;;;;21.25;16.33;98518.69;6192919;23;20024;-85
2022/05/23 11:10:36;;;;;;;17.23;10.70;;;;;;;21.85;16.68;98638.69;6140747;23;20049;-84
2022/05/23 11:13:11;;;;;;;9.18;5.53;;;;;;;21.44;16.59;98600.19;6192183;23;20051;-81
2022/05/23 11:15:58;;;;;;;7.93;4.55;;;;;;;21.50;16.91;98653.50;6193163;23;20544;-84
2022/05/23 11:19:08;;;;;;;4.50;2.20;;;;;;;21.13;17.15;98655.28;6168022;23;20013;-82
2022/05/23 11:22:11;;;;;;;2.70;1.80;;;;;;;20.27;17.36;98547.53;6134377;23;20039;-83
2022/05/23 11:34:36;;;;;;;8.88;4.80;;;;;;;20.11;18.34;98648.06;6168647;23;20013;-82
2022/05/23 11:40:06;;;;;;;9.27;4.85;;;;;;;19.07;18.90;98585.28;6173934;23;20021;-82
2022/05/23 11:42:57;;;;;;;6.55;4.07;;;;;;;19.08;19.03;98631.81;6177987;23;20016;-82
2022/05/23 11:48:39;;;;;;;11.23;6.60;;;;;;;19.15;19.35;98646.28;6170637;23;20032;-82
2022/05/23 11:51:24;;;;;;;8.07;4.55;;;;;;;18.94;19.62;98649.28;6169366;23;20013;-82
2022/05/23 11:54:01;;;;;;;2.90;1.60;;;;;;;18.59;19.67;98625.09;6168851;23;20020;-81
2022/05/23 11:57:10;;;;;;;4.07;1.80;;;;;;;18.60;19.91;98648.72;6144797;23;20165;-82
2022/05/23 11:59:39;;;;;;;4.20;2.35;;;;;;;18.38;19.83;98628.06;6191330;23;20021;-81
2022/05/23 12:02:14;;;;;;;3.33;2.03;;;;;;;18.54;20.01;98656.97;6163759;23;20027;-86
2022/05/23 12:04:54;;;;;;;6.05;2.33;;;;;;;18.52;20.06;98651.81;6190466;23;20040;-82
2022/05/23 12:07:31;;;;;;;;;;;;;;;18.52;19.93;98651.81;6187538;23;20295;-82
2022/05/23 12:10:36;;;;;;;4.45;1.75;;;;;;;18.46;20.20;98660.06;6188593;23;20333;-83
2022/05/23 12:13:32;;;;;;;3.25;1.83;;;;;;;18.36;20.06;98661.53;6090270;23;20108;-82
2022/05/23 12:16:27;;;;;;;11.95;1.95;;;;;;;17.65;20.29;98576.19;6159438;23;20021;-82
2022/05/23 12:19:13;;;;;;;2.75;1.70;;;;;;;17.84;20.51;98654.88;6088268;23;20108;-78
2022/05/23 12:21:44;;;;;;;4.53;1.92;;;;;;;17.17;20.87;98583.16;6114250;23;20088;-79
2022/05/23 12:24:28;;;;;;;5.20;2.10;;;;;;;17.66;21.19;98665.50;6139012;23;20366;-82
2022/05/23 12:27:02;;;;;;;3.20;1.80;;;;;;;17.70;21.12;98661.78;6166710;23;20013;-80
2022/05/23 12:29:35;;;;;;;5.85;1.60;;;;;;;17.62;21.25;98650.81;6123873;23;20017;-80
2022/05/23 12:32:28;;;;;;;6.13;1.70;;;;;;;17.62;21.37;98663.97;6180374;23;20052;-81
2022/05/23 12:34:56;;;;;;;5.20;1.60;;;;;;;17.64;21.11;98667.38;6178863;23;20040;-80
2022/05/23 12:37:41;;;;;;;4.80;1.73;;;;;;;17.58;21.28;98639.63;6151653;23;20017;-82
2022/05/23 12:40:50;;;;;;;6.10;1.55;;;;;;;17.85;21.32;98667.09;6115895;23;20101;-83
2022/05/23 12:43:50;;;;;;;5.45;1.50;;;;;;;17.98;21.09;98648.81;6133244;23;20340;-83
2022/05/23 12:46:40;;;;;;;5.78;1.58;;;;;;;17.87;21.67;98650.31;6159263;23;20073;-83
2022/05/23 12:49:22;;;;;;;9.07;2.22;;;;;;;17.94;21.33;98653.41;6133208;23;20017;-81
2022/05/23 12:52:07;;;;;;;5.25;1.60;;;;;;;17.88;21.41;98649.34;6132286;23;20072;-82
2022/05/23 12:54:55;;;;;;;6.82;3.65;;;;;;;17.80;21.39;98653.34;6107050;23;20083;-81
2022/05/23 12:58:07;;;;;;;4.72;2.10;;;;;;;17.65;21.36;98658.53;6105003;23;20013;-81
2022/05/23 13:00:37;;;;;;;;;;;;;;;17.46;21.54;98645.56;6157096;23;20022;-80
2022/05/23 13:03:17;;;;;;;4.93;2.30;;;;;;;17.33;21.60;98641.94;6107817;23;19996;-79
2022/05/23 13:06:05;;;;;;;4.03;2.53;;;;;;;17.21;21.53;98638.19;6134139;23;20104;-80
2022/05/23 13:08:44;;;;;;;4.80;2.25;;;;;;;16.78;21.68;98568.63;6136155;23;20017;-79
2022/05/23 13:11:28;;;;;;;4.40;1.83;;;;;;;17.14;21.62;98635.91;6131593;23;20017;-79
2022/05/23 13:13:58;;;;;;;7.13;2.88;;;;;;;16.95;21.71;98627.28;6130492;23;20052;-81
2022/05/23 13:16:39;;;;;;;2.58;1.63;;;;;;;16.61;21.63;98571.31;6106982;23;20037;-80
2022/05/23 13:22:13;;;;;;;7.65;2.10;;;;;;;16.88;21.71;98615.44;6130545;23;20358;-82
2022/05/23 13:24:53;;;;;;;8.15;2.20;;;;;;;17.02;21.84;98639.19;6131715;23;20022;-83
2022/05/23 13:27:37;;;;;;;6.38;2.75;;;;;;;16.41;21.57;98546.97;6108311;23;20090;-83
2022/05/23 13:30:07;;;;;;;9.88;3.42;;;;;;;16.27;21.99;98543.28;6131364;23;20041;-82
2022/05/23 13:32:35;;;;;;;6.55;2.72;;;;;;;16.80;21.52;98644.72;6131648;23;20077;-80
2022/05/23 13:35:21;;;;;;;4.50;2.22;;;;;;;16.66;21.51;98616.56;6159002;23;20022;-81
2022/05/23 13:37:48;;;;;;;4.18;1.45;;;;;;;16.75;21.52;98642.34;6108282;23;20117;-82
2022/05/23 13:40:26;;;;;;;6.47;1.73;;;;;;;16.67;21.24;98648.00;6133321;23;20021;-82
2022/05/23 13:43:11;;;;;;;3.42;1.60;;;;;;;16.39;21.13;98611.84;6133130;23;20137;-84
2022/05/23 13:45:39;;;;;;;4.35;1.75;;;;;;;16.43;21.17;98642.25;6132524;23;20442;-80
2022/05/23 13:48:24;;;;;;;3.65;1.60;;;;;;;16.42;21.15;98644.00;6108999;23;20408;-82
2022/05/23 13:51:03;;;;;;;6.25;1.58;;;;;;;16.36;21.10;98639.06;6107454;23;20028;-82
2022/05/23 13:53:43;;;;;;;2.97;1.75;;;;;;;16.24;21.30;98622.16;6104761;23;20414;-81
2022/05/23 13:56:10;;;;;;;3.22;1.70;;;;;;;16.38;21.30;98647.72;6154801;23;20060;-81
2022/05/23 13:59:07;;;;;;;3.40;1.60;;;;;;;16.06;21.10;98586.38;6130690;23;20032;-81
2022/05/23 14:01:41;;;;;;;5.38;1.80;;;;;;;16.27;21.33;98643.00;6132535;23;20028;-80
2022/05/23 14:04:21;;;;;;;2.60;1.70;;;;;;;16.20;21.31;98640.78;6134815;23;20013;-82
2022/05/23 14:06:58;;;;;;;2.88;1.80;;;;;;;15.77;21.50;98583.44;6133262;23;20037;-82
2022/05/23 14:09:32;;;;;;;5.25;1.95;;;;;;;15.79;21.58;98607.78;6158833;23;20017;-83
2022/05/23 14:12:11;;;;;;;4.20;1.50;;;;;;;15.98;21.58;98633.16;6133261;23;20116;-79
2022/05/23 14:14:54;;;;;;;8.68;2.15;;;;;;;15.83;21.53;98606.72;6136131;23;20028;-78
2022/05/23 14:17:31;;;;;;;14.30;6.45;;;;;;;15.97;21.30;98619.16;6134829;23;20021;-81
2022/05/23 14:20:12;;;;;;;4.25;1.80;;;;;;;15.84;20.98;98592.66;6156809;23;20088;-82
2022/05/23 14:23:09;;;;;;;6.55;3.85;;;;;;;16.19;20.95;98626.81;6132157;23;20022;-82